Umgeni — 9V9273 — position and weather

sailwx.info

Track history (hours):
 
Tides and Currents Weather Stations Pressure Air Temp Water Temp Dewpoint Dewpoint Depression Visibility Wind Speed Wind Dir Waves Ship Positions

Umgeni

Last reported at 2017-Nov-23 09:21 UTC. Time now 2017-Nov-23 16:55 UTC.
Position N 49°54' W 004°27'.

Length 144 m; draft 5.7 m.

Type: Tanker. MMSI: 566043000.

Date/timePositionNaut miles runAvg speedWind from/ knotsBaromVisibWave heightAir tempDewpointWater temp
2017-Nov-23 09:21N 49°54' W 004°27'8 6.0
2017-Nov-23 07:55N 49°55' W 004°14'8 5.9
2017-Nov-23 06:38N 49°55' W 004°02'11 6.3
2017-Nov-23 04:49N 49°57' W 003°45'4 6.2
2017-Nov-23 04:15N 49°57' W 003°39'2 6.0
2017-Nov-23 03:58N 49°57' W 003°37'3 7.6
2017-Nov-23 03:30N 49°58' W 003°31'3 6.6
2017-Nov-23 03:00N 49°58' W 003°26'4 7.1
2017-Nov-23 02:30N 49°59' W 003°21'3 6.6
2017-Nov-23 02:00N 49°59' W 003°16'3 5.9
2017-Nov-23 01:28N 49°60' W 003°11'2 4.4
2017-Nov-23 01:00N 49°60' W 003°08'2 4.3
2017-Nov-23 00:30N 50°00' W 003°04'2 3.1
2017-Nov-23 00:00N 50°01' W 003°02'1 2.1
2017-Nov-22 23:30N 50°01' W 003°01'1 2.1
2017-Nov-22 23:00N 50°01' W 002°59'1 1.5
2017-Nov-22 22:30N 50°01' W 002°58'1 1.1
2017-Nov-22 22:00N 50°01' W 002°57'1 1.1
2017-Nov-22 21:30N 50°01' W 002°56'1 1.1
2017-Nov-22 20:52N 50°01' W 002°55'0 0.9
2017-Nov-22 20:30N 50°01' W 002°54'1 1.1
2017-Nov-22 19:43N 50°01' W 002°53'0 1.5
2017-Nov-22 19:30N 50°01' W 002°53'  
2017-Nov-20 00:28N 50°31' E 000°16'1111.7
2017-Nov-19 23:33N 50°34' E 000°32'111.3
2017-Nov-19 23:27N 50°35' E 000°33'511.0
2017-Nov-19 22:59N 50°37' E 000°41'710.8
2017-Nov-19 22:21N 50°41' E 000°50'2311.8
2017-Nov-19 20:23N 50°55' E 001°19'614.6
2017-Nov-19 20:00N 50°59' E 001°24'715.3
2017-Nov-19 19:30N 51°05' E 001°33'815.0
2017-Nov-19 19:00N 51°10' E 001°41'713.9
2017-Nov-19 18:30N 51°15' E 001°48'613.0
2017-Nov-19 18:00N 51°21' E 001°54'612.2
2017-Nov-19 17:30N 51°26' E 001°59'611.6
2017-Nov-19 17:00N 51°31' E 002°05'611.1
2017-Nov-19 16:30N 51°35' E 002°11'260 7.6
2017-Nov-18 06:11N 54°01' E 008°08'2 8.6
2017-Nov-18 05:59N 54°01' E 008°11'4 8.5
2017-Nov-18 05:30N 54°00' E 008°18'5 9.3
2017-Nov-18 05:00N 53°59' E 008°25'510.7
2017-Nov-18 04:30N 53°58' E 008°34'611.8
2017-Nov-18 04:00N 53°54' E 008°42'612.2
2017-Nov-18 03:30N 53°50' E 008°50'611.8
2017-Nov-18 03:00N 53°51' E 008°60'510.1
2017-Nov-18 02:30N 53°53' E 009°08'1 1.9
2017-Nov-18 02:00N 53°54' E 009°09'0 0.3
2017-Nov-18 01:30N 53°54' E 009°09'2 3.7
2017-Nov-18 01:00N 53°55' E 009°11'2 4.2
2017-Nov-18 00:30N 53°57' E 009°14'1 2.3
2017-Nov-18 00:00N 53°58' E 009°15'3 6.6
2017-Nov-17 23:30N 54°00' E 009°18'3 6.5
2017-Nov-17 23:00N 54°04' E 009°19'3 6.7
2017-Nov-17 22:30N 54°07' E 009°20'3 5.8
2017-Nov-17 22:00N 54°09' E 009°23'3 6.0
2017-Nov-17 21:30N 54°11' E 009°27'3 6.4
2017-Nov-17 21:00N 54°12' E 009°32'3 6.5
2017-Nov-17 20:30N 54°14' E 009°36'3 6.6
2017-Nov-17 20:00N 54°17' E 009°38'3 6.2
2017-Nov-17 19:30N 54°19' E 009°43'3 6.3
2017-Nov-17 19:00N 54°21' E 009°46'32 5.7
2017-Nov-17 13:28N 54°34' E 010°36'511.4
2017-Nov-17 13:00N 54°35' E 010°45'611.3
2017-Nov-17 12:30N 54°35' E 010°54'611.0
2017-Nov-17 12:00N 54°36' E 011°04'5 9.5
2017-Nov-17 11:30N 54°36' E 011°12'510.0
2017-Nov-17 11:00N 54°34' E 011°19'511.0
2017-Nov-17 10:30N 54°31' E 011°28'611.3
2017-Nov-17 10:00N 54°29' E 011°37'611.4
2017-Nov-17 09:30N 54°27' E 011°46'611.0
2017-Nov-17 09:00N 54°26' E 011°55'611.3
2017-Nov-17 08:30N 54°26' E 012°05'21010.6
2017-Nov-16 12:37N 55°05' E 018°03'311.5
2017-Nov-16 12:21N 55°06' E 018°08'511.3
2017-Nov-16 11:54N 55°08' E 018°16'511.3
2017-Nov-16 11:30N 55°09' E 018°24'611.5
2017-Nov-16 11:00N 55°12' E 018°33'32 0.7
2017-Nov-14 15:17N 54°60' E 019°25'311.7
2017-Nov-14 15:00N 54°57' E 019°21'611.7
2017-Nov-14 14:30N 54°52' E 019°15'611.3
2017-Nov-14 14:00N 54°48' E 019°09'611.6
2017-Nov-14 13:30N 54°44' E 019°02'611.6
2017-Nov-14 13:00N 54°39' E 018°57'611.5
2017-Nov-14 12:30N 54°34' E 018°52'611.8
2017-Nov-14 12:00N 54°29' E 018°45'2 4.3
2017-Nov-14 11:29N 54°28' E 018°42'0 0.1
2017-Nov-14 10:59N 54°28' E 018°43'0 0.0
2017-Nov-14 10:29N 54°28' E 018°43'0 0.0
2017-Nov-14 09:59N 54°28' E 018°43'0 0.0
2017-Nov-14 09:29N 54°28' E 018°43'0 0.0
2017-Nov-14 08:59N 54°28' E 018°43'0 0.0
2017-Nov-14 08:29N 54°28' E 018°43'0 0.0
2017-Nov-14 07:59N 54°28' E 018°43'0 0.0
2017-Nov-14 07:29N 54°28' E 018°43'0 0.0
2017-Nov-14 06:59N 54°28' E 018°43'0 0.0
2017-Nov-14 06:29N 54°27' E 018°43'0 0.0
2017-Nov-14 05:59N 54°27' E 018°43'0 0.0
2017-Nov-14 05:29N 54°27' E 018°43'0 0.0
2017-Nov-14 04:59N 54°27' E 018°43'0 0.0
2017-Nov-14 04:29N 54°27' E 018°43'0 0.0
2017-Nov-14 03:59N 54°27' E 018°43'0 0.0
2017-Nov-14 03:26N 54°27' E 018°43'0 0.1
2017-Nov-14 02:59N 54°27' E 018°43'0 0.0
2017-Nov-14 02:30N 54°27' E 018°43'0 0.1
2017-Nov-14 02:00N 54°27' E 018°43'0 0.0
2017-Nov-14 01:30N 54°27' E 018°43'0 0.0
2017-Nov-14 01:00N 54°27' E 018°43'0 0.0
2017-Nov-14 00:30N 54°27' E 018°43'0 0.0
2017-Nov-14 00:00N 54°27' E 018°43'0 0.0
2017-Nov-13 23:30N 54°27' E 018°43'0 0.0
2017-Nov-13 22:57N 54°27' E 018°43'0 0.1
2017-Nov-13 22:30N 54°27' E 018°43'0 0.0
2017-Nov-13 22:00N 54°27' E 018°43'  
Track history (hours):
 
Tides and Currents Weather Stations Pressure Air Temp Water Temp Dewpoint Dewpoint Depression Visibility Wind Speed Wind Dir Waves Ship Positions

Umgeni

Last reported at 2017-Nov-23 09:21 UTC. Time now 2017-Nov-23 16:55 UTC.
Position N 49°54' W 004°27'.

Length 144 m; draft 5.7 m.

Type: Tanker. MMSI: 566043000.

Date/timePositionNaut miles runAvg speedWind from/ knotsBaromVisibWave heightAir tempDewpointWater temp
2017-Nov-23 09:21N 49°54' W 004°27'8 6.0
2017-Nov-23 07:55N 49°55' W 004°14'8 5.9
2017-Nov-23 06:38N 49°55' W 004°02'11 6.3
2017-Nov-23 04:49N 49°57' W 003°45'4 6.2
2017-Nov-23 04:15N 49°57' W 003°39'2 6.0
2017-Nov-23 03:58N 49°57' W 003°37'3 7.6
2017-Nov-23 03:30N 49°58' W 003°31'3 6.6
2017-Nov-23 03:00N 49°58' W 003°26'4 7.1
2017-Nov-23 02:30N 49°59' W 003°21'3 6.6
2017-Nov-23 02:00N 49°59' W 003°16'3 5.9
2017-Nov-23 01:28N 49°60' W 003°11'2 4.4
2017-Nov-23 01:00N 49°60' W 003°08'2 4.3
2017-Nov-23 00:30N 50°00' W 003°04'2 3.1
2017-Nov-23 00:00N 50°01' W 003°02'1 2.1
2017-Nov-22 23:30N 50°01' W 003°01'1 2.1
2017-Nov-22 23:00N 50°01' W 002°59'1 1.5
2017-Nov-22 22:30N 50°01' W 002°58'1 1.1
2017-Nov-22 22:00N 50°01' W 002°57'1 1.1
2017-Nov-22 21:30N 50°01' W 002°56'1 1.1
2017-Nov-22 20:52N 50°01' W 002°55'0 0.9
2017-Nov-22 20:30N 50°01' W 002°54'1 1.1
2017-Nov-22 19:43N 50°01' W 002°53'0 1.5
2017-Nov-22 19:30N 50°01' W 002°53'  
2017-Nov-20 00:28N 50°31' E 000°16'1111.7
2017-Nov-19 23:33N 50°34' E 000°32'111.3
2017-Nov-19 23:27N 50°35' E 000°33'511.0
2017-Nov-19 22:59N 50°37' E 000°41'710.8
2017-Nov-19 22:21N 50°41' E 000°50'2311.8
2017-Nov-19 20:23N 50°55' E 001°19'614.6
2017-Nov-19 20:00N 50°59' E 001°24'715.3
2017-Nov-19 19:30N 51°05' E 001°33'815.0
2017-Nov-19 19:00N 51°10' E 001°41'713.9
2017-Nov-19 18:30N 51°15' E 001°48'613.0
2017-Nov-19 18:00N 51°21' E 001°54'612.2
2017-Nov-19 17:30N 51°26' E 001°59'611.6
2017-Nov-19 17:00N 51°31' E 002°05'611.1
2017-Nov-19 16:30N 51°35' E 002°11'260 7.6
2017-Nov-18 06:11N 54°01' E 008°08'2 8.6
2017-Nov-18 05:59N 54°01' E 008°11'4 8.5
2017-Nov-18 05:30N 54°00' E 008°18'5 9.3
2017-Nov-18 05:00N 53°59' E 008°25'510.7
2017-Nov-18 04:30N 53°58' E 008°34'611.8
2017-Nov-18 04:00N 53°54' E 008°42'612.2
2017-Nov-18 03:30N 53°50' E 008°50'611.8
2017-Nov-18 03:00N 53°51' E 008°60'510.1
2017-Nov-18 02:30N 53°53' E 009°08'1 1.9
2017-Nov-18 02:00N 53°54' E 009°09'0 0.3
2017-Nov-18 01:30N 53°54' E 009°09'2 3.7
2017-Nov-18 01:00N 53°55' E 009°11'2 4.2
2017-Nov-18 00:30N 53°57' E 009°14'1 2.3
2017-Nov-18 00:00N 53°58' E 009°15'3 6.6
2017-Nov-17 23:30N 54°00' E 009°18'3 6.5
2017-Nov-17 23:00N 54°04' E 009°19'3 6.7
2017-Nov-17 22:30N 54°07' E 009°20'3 5.8
2017-Nov-17 22:00N 54°09' E 009°23'3 6.0
2017-Nov-17 21:30N 54°11' E 009°27'3 6.4
2017-Nov-17 21:00N 54°12' E 009°32'3 6.5
2017-Nov-17 20:30N 54°14' E 009°36'3 6.6
2017-Nov-17 20:00N 54°17' E 009°38'3 6.2
2017-Nov-17 19:30N 54°19' E 009°43'3 6.3
2017-Nov-17 19:00N 54°21' E 009°46'32 5.7
2017-Nov-17 13:28N 54°34' E 010°36'511.4
2017-Nov-17 13:00N 54°35' E 010°45'611.3
2017-Nov-17 12:30N 54°35' E 010°54'611.0
2017-Nov-17 12:00N 54°36' E 011°04'5 9.5
2017-Nov-17 11:30N 54°36' E 011°12'510.0
2017-Nov-17 11:00N 54°34' E 011°19'511.0
2017-Nov-17 10:30N 54°31' E 011°28'611.3
2017-Nov-17 10:00N 54°29' E 011°37'611.4
2017-Nov-17 09:30N 54°27' E 011°46'611.0
2017-Nov-17 09:00N 54°26' E 011°55'611.3
2017-Nov-17 08:30N 54°26' E 012°05'21010.6
2017-Nov-16 12:37N 55°05' E 018°03'311.5
2017-Nov-16 12:21N 55°06' E 018°08'511.3
2017-Nov-16 11:54N 55°08' E 018°16'511.3
2017-Nov-16 11:30N 55°09' E 018°24'611.5
2017-Nov-16 11:00N 55°12' E 018°33'32 0.7
2017-Nov-14 15:17N 54°60' E 019°25'311.7
2017-Nov-14 15:00N 54°57' E 019°21'611.7
2017-Nov-14 14:30N 54°52' E 019°15'611.3
2017-Nov-14 14:00N 54°48' E 019°09'611.6
2017-Nov-14 13:30N 54°44' E 019°02'611.6
2017-Nov-14 13:00N 54°39' E 018°57'611.5
2017-Nov-14 12:30N 54°34' E 018°52'611.8
2017-Nov-14 12:00N 54°29' E 018°45'2 4.3
2017-Nov-14 11:29N 54°28' E 018°42'0 0.1
2017-Nov-14 10:59N 54°28' E 018°43'0 0.0
2017-Nov-14 10:29N 54°28' E 018°43'0 0.0
2017-Nov-14 09:59N 54°28' E 018°43'0 0.0
2017-Nov-14 09:29N 54°28' E 018°43'0 0.0
2017-Nov-14 08:59N 54°28' E 018°43'0 0.0
2017-Nov-14 08:29N 54°28' E 018°43'0 0.0
2017-Nov-14 07:59N 54°28' E 018°43'0 0.0
2017-Nov-14 07:29N 54°28' E 018°43'0 0.0
2017-Nov-14 06:59N 54°28' E 018°43'0 0.0
2017-Nov-14 06:29N 54°27' E 018°43'0 0.0
2017-Nov-14 05:59N 54°27' E 018°43'0 0.0
2017-Nov-14 05:29N 54°27' E 018°43'0 0.0
2017-Nov-14 04:59N 54°27' E 018°43'0 0.0
2017-Nov-14 04:29N 54°27' E 018°43'0 0.0
2017-Nov-14 03:59N 54°27' E 018°43'0 0.0
2017-Nov-14 03:26N 54°27' E 018°43'0 0.1
2017-Nov-14 02:59N 54°27' E 018°43'0 0.0
2017-Nov-14 02:30N 54°27' E 018°43'0 0.1
2017-Nov-14 02:00N 54°27' E 018°43'0 0.0
2017-Nov-14 01:30N 54°27' E 018°43'0 0.0
2017-Nov-14 01:00N 54°27' E 018°43'0 0.0
2017-Nov-14 00:30N 54°27' E 018°43'0 0.0
2017-Nov-14 00:00N 54°27' E 018°43'0 0.0
2017-Nov-13 23:30N 54°27' E 018°43'0 0.0
2017-Nov-13 22:57N 54°27' E 018°43'0 0.1
2017-Nov-13 22:30N 54°27' E 018°43'0 0.0
2017-Nov-13 22:00N 54°27' E 018°43'  

Dump ship's entire track history